Time;durP1;ratioP1;P1;durP2;ratioP2;P2;SDS_P1;SDS_P2;PMS_P1;PMS_P2;Temp;Humidity;BMP_temperature;BMP_pressure;BME280_temperature;BME280_humidity;BME280_pressure;Samples;Min_cycle;Max_cycle;Signal;HPM_P1;HPM_P2
2023/10/14 00:00:35;;;;;;;51.10;30.30;;;;;;;24.42;nan;98572.91;5067381;28;20048;-61
2023/10/14 00:05:53;;;;;;;41.40;29.17;;;;;;;24.58;nan;98581.69;5067259;28;20711;-61
2023/10/14 00:08:26;;;;;;;42.53;31.08;;;;;;;24.60;nan;98583.03;5064595;28;20494;-63
2023/10/14 00:10:59;;;;;;;44.63;30.00;;;;;;;24.62;nan;98580.00;5076160;28;20036;-63
2023/10/14 00:13:30;;;;;;;47.80;29.65;;;;;;;24.56;nan;98578.47;5072582;28;20132;-63
2023/10/14 00:16:01;;;;;;;41.03;27.17;;;;;;;24.52;nan;98588.22;5057855;28;20167;-63
2023/10/14 00:18:32;;;;;;;38.38;28.10;;;;;;;24.48;nan;98587.19;5063041;28;20068;-63
2023/10/14 00:21:01;;;;;;;41.95;28.23;;;;;;;24.58;nan;98589.81;5066563;28;20134;-63
2023/10/14 00:23:32;;;;;;;42.15;27.75;;;;;;;24.48;nan;98589.91;5062737;28;20109;-63
2023/10/14 00:26:03;;;;;;;43.05;27.70;;;;;;;24.40;nan;98596.75;5063098;28;20430;-63
2023/10/14 00:28:32;;;;;;;43.28;28.50;;;;;;;24.29;nan;98594.44;5063767;28;20041;-63
2023/10/14 00:31:02;;;;;;;38.97;26.63;;;;;;;24.38;nan;98600.84;5062723;28;20040;-63
2023/10/14 00:33:35;;;;;;;38.67;26.50;;;;;;;24.36;nan;98597.59;5060448;28;20041;-63
2023/10/14 00:36:10;;;;;;;42.67;25.83;;;;;;;24.42;nan;98599.19;5064560;28;20376;-63
2023/10/14 00:38:45;;;;;;;33.72;25.75;;;;;;;24.47;nan;98610.75;5044044;28;20045;-63
2023/10/14 00:41:16;;;;;;;49.50;27.13;;;;;;;24.37;nan;98610.06;5059731;28;20053;-63
2023/10/14 00:43:46;;;;;;;41.15;26.05;;;;;;;24.38;nan;98619.78;5042624;28;20712;-63
2023/10/14 00:46:16;;;;;;;35.38;26.02;;;;;;;24.22;nan;98621.81;5040640;28;20064;-63
2023/10/14 00:48:47;;;;;;;37.25;24.77;;;;;;;24.16;nan;98629.16;5059545;28;20044;-63
2023/10/14 00:51:19;;;;;;;34.28;24.35;;;;;;;24.12;nan;98632.66;5060431;28;20135;-63
2023/10/14 00:53:52;;;;;;;34.58;24.90;;;;;;;24.24;nan;98637.78;5065428;28;20139;-63
2023/10/14 00:56:28;;;;;;;42.20;23.85;;;;;;;24.24;nan;98635.06;5040738;28;20052;-63
2023/10/14 00:59:04;;;;;;;36.47;24.73;;;;;;;24.28;nan;98638.81;5046031;28;20044;-63
2023/10/14 01:04:31;;;;;;;36.47;25.65;;;;;;;24.45;nan;98648.16;5063924;28;20052;-63
2023/10/14 01:09:55;;;;;;;36.33;25.17;;;;;;;24.65;nan;98665.31;5074548;28;20053;-63
2023/10/14 01:12:27;;;;;;;40.08;26.73;;;;;;;24.44;nan;98664.66;5065036;28;20125;-63
2023/10/14 01:14:59;;;;;;;;;;;;;;;24.41;nan;98667.94;5063581;28;20114;-62
2023/10/14 01:17:29;;;;;;;34.80;26.70;;;;;;;24.53;nan;98668.38;5033094;28;19924;-63
2023/10/14 01:22:47;;;;;;;42.65;26.45;;;;;;;24.41;nan;98666.06;5047173;28;20049;-63
2023/10/14 01:25:19;;;;;;;38.50;26.88;;;;;;;24.35;nan;98669.06;5062132;28;20060;-65
2023/10/14 01:27:49;;;;;;;33.88;26.35;;;;;;;24.52;nan;98673.00;5051520;28;20049;-63
2023/10/14 01:30:25;;;;;;;34.03;25.85;;;;;;;24.23;nan;98679.44;5064032;28;20202;-64
2023/10/14 01:33:10;;;;;;;34.40;25.60;;;;;;;24.45;nan;98675.22;5061344;28;20468;-63
2023/10/14 01:35:45;;;;;;;37.22;24.77;;;;;;;24.14;nan;98671.91;5045493;28;20048;-64
2023/10/14 01:38:14;;;;;;;40.30;26.58;;;;;;;24.01;nan;98680.66;5039202;28;20059;-62
2023/10/14 01:40:49;;;;;;;55.03;28.17;;;;;;;24.18;nan;98672.19;5059123;28;20057;-63
2023/10/14 01:43:24;;;;;;;36.47;25.02;;;;;;;24.20;nan;98680.03;5047400;28;20132;-65
2023/10/14 01:48:31;;;;;;;33.20;24.85;;;;;;;24.30;nan;98683.44;5034265;28;20072;-63
2023/10/14 01:51:03;;;;;;;38.83;26.52;;;;;;;24.37;nan;98686.66;5062870;28;20139;-65
2023/10/14 01:53:34;;;;;;;36.25;25.60;;;;;;;24.45;nan;98688.75;5054633;28;20059;-63
2023/10/14 01:56:06;;;;;;;32.67;25.83;;;;;;;24.42;nan;98688.53;5053403;28;20373;-63
2023/10/14 01:58:36;;;;;;;32.83;25.05;;;;;;;24.47;nan;98700.09;5028572;28;20132;-62
2023/10/14 02:01:15;;;;;;;35.85;26.40;;;;;;;24.67;nan;98701.84;5039065;28;20082;-63
2023/10/14 02:03:50;;;;;;;37.22;25.98;;;;;;;24.66;nan;98702.13;5046011;28;20729;-63
2023/10/14 02:06:32;;;;;;;37.05;25.92;;;;;;;24.96;nan;98710.81;5058288;28;20378;-63
2023/10/14 02:09:05;;;;;;;34.13;25.95;;;;;;;24.93;nan;98713.28;5028777;28;20056;-62
2023/10/14 02:11:35;;;;;;;35.13;25.92;;;;;;;25.08;nan;98715.06;5054716;28;20144;-63
2023/10/14 02:14:07;;;;;;;37.35;25.17;;;;;;;25.15;nan;98729.06;5055817;28;20050;-62
2023/10/14 02:16:44;;;;;;;;;;;;;;;25.18;nan;98731.22;5046057;28;20332;-63
2023/10/14 02:22:03;;;;;;;40.45;25.42;;;;;;;24.60;nan;98742.00;5042536;28;20037;-64
2023/10/14 02:24:32;;;;;;;39.42;24.98;;;;;;;24.71;nan;98740.00;5044493;28;20102;-63
2023/10/14 02:27:11;;;;;;;43.47;25.67;;;;;;;24.84;nan;98737.47;5038564;28;20049;-63
2023/10/14 02:29:43;;;;;;;42.17;27.17;;;;;;;25.09;nan;98741.09;5054591;28;20048;-63
2023/10/14 02:32:14;;;;;;;34.28;24.73;;;;;;;25.23;nan;98742.81;5014590;28;20370;-63
2023/10/14 02:34:46;;;;;;;40.10;26.42;;;;;;;25.05;nan;98741.63;5034340;28;20054;-63
2023/10/14 02:37:15;;;;;;;39.05;25.58;;;;;;;25.03;nan;98748.44;5024444;28;20053;-63
2023/10/14 02:39:50;;;;;;;34.83;23.52;;;;;;;25.22;nan;98751.25;5010570;28;20485;-63
2023/10/14 02:42:20;;;;;;;34.97;24.60;;;;;;;25.35;nan;98753.28;5029078;28;20061;-66
2023/10/14 02:44:52;;;;;;;41.67;24.65;;;;;;;25.50;nan;98763.94;5014497;28;20115;-63
2023/10/14 02:47:26;;;;;;;;;;;;;;;25.62;nan;98769.84;5016758;28;20045;-63
2023/10/14 02:50:05;;;;;;;30.40;23.17;;;;;;;25.62;nan;98779.88;5017009;28;19964;-63
2023/10/14 02:52:38;;;;;;;28.98;22.40;;;;;;;25.70;nan;98781.94;5009628;28;20045;-63
2023/10/14 02:55:22;;;;;;;30.08;22.23;;;;;;;25.72;nan;98794.13;5008896;28;20144;-63
2023/10/14 02:57:52;;;;;;;31.85;21.80;;;;;;;25.83;nan;98792.91;5030304;28;20056;-63
2023/10/14 03:00:29;;;;;;;30.40;21.98;;;;;;;25.80;nan;98793.47;5042227;28;20532;-63
2023/10/14 03:03:10;;;;;;;39.60;26.48;;;;;;;25.60;nan;98790.19;5045710;28;20461;-63
2023/10/14 03:05:52;;;;;;;30.00;23.77;;;;;;;25.82;nan;98796.72;5021411;28;20045;-63
2023/10/14 03:08:22;;;;;;;33.53;23.27;;;;;;;25.88;nan;98800.19;5025945;28;20054;-63
2023/10/14 03:10:59;;;;;;;31.85;24.45;;;;;;;25.85;nan;98800.75;5006867;28;20050;-62
2023/10/14 03:13:29;;;;;;;35.92;24.55;;;;;;;25.89;nan;98808.03;5037369;28;20056;-63
2023/10/14 03:16:00;;;;;;;35.30;24.63;;;;;;;26.08;nan;98809.97;5032863;28;20050;-63
2023/10/14 03:18:47;;;;;;;40.78;25.60;;;;;;;26.16;nan;98814.75;5039759;28;20059;-63
2023/10/14 03:21:24;;;;;;;43.58;27.73;;;;;;;26.13;nan;98820.78;5025214;28;20075;-63
2023/10/14 03:23:56;;;;;;;39.55;26.25;;;;;;;26.12;nan;98830.00;5039383;28;20045;-63
2023/10/14 03:26:47;;;;;;;36.35;25.83;;;;;;;26.14;nan;98838.69;5046633;28;20080;-63
2023/10/14 03:29:22;;;;;;;44.25;27.90;;;;;;;26.05;nan;98851.28;5022513;28;20052;-64
2023/10/14 03:31:52;;;;;;;38.33;26.77;;;;;;;25.82;nan;98855.63;5040314;28;20532;-63
2023/10/14 03:34:29;;;;;;;64.30;35.85;;;;;;;25.59;nan;98859.91;5038803;28;20064;-63
2023/10/14 03:37:00;;;;;;;71.43;46.88;;;;;;;25.51;nan;98857.78;5028366;28;20041;-64
2023/10/14 03:39:41;;;;;;;64.78;45.10;;;;;;;25.09;nan;98852.22;5041271;28;20053;-63
2023/10/14 03:42:16;;;;;;;66.72;41.55;;;;;;;25.33;nan;98862.03;5032259;28;20045;-63
2023/10/14 03:44:47;;;;;;;55.47;39.17;;;;;;;25.85;nan;98860.47;5030480;28;20134;-64
2023/10/14 03:47:17;;;;;;;53.15;38.67;;;;;;;25.65;nan;98861.50;5015997;28;20128;-63
2023/10/14 03:49:55;;;;;;;50.90;37.17;;;;;;;26.22;nan;98871.47;5023166;28;20584;-63
2023/10/14 03:52:26;;;;;;;48.00;34.88;;;;;;;26.41;nan;98876.94;5041438;28;20040;-63
2023/10/14 03:54:55;;;;;;;40.25;27.70;;;;;;;26.13;nan;98870.47;5030451;28;20548;-64
2023/10/14 03:57:34;;;;;;;32.83;25.02;;;;;;;26.34;nan;98879.19;5021711;28;20045;-63
2023/10/14 04:00:12;;;;;;;34.97;24.85;;;;;;;26.43;nan;98874.72;5033694;28;20056;-65
2023/10/14 04:02:43;;;;;;;36.75;23.45;;;;;;;26.45;nan;98877.97;5027327;28;20049;-63
2023/10/14 04:05:13;;;;;;;27.10;21.17;;;;;;;26.81;nan;98873.69;5024837;28;20385;-63
2023/10/14 04:07:42;;;;;;;26.15;20.10;;;;;;;26.94;nan;98883.03;5037986;28;20065;-64
2023/10/14 04:10:11;;;;;;;22.83;18.15;;;;;;;27.18;nan;98883.72;5021413;28;20037;-64
2023/10/14 04:12:53;;;;;;;24.27;17.45;;;;;;;26.96;nan;98882.72;5026760;28;20045;-64
2023/10/14 04:15:34;;;;;;;23.77;17.27;;;;;;;27.40;nan;98885.81;5015549;28;20056;-64
2023/10/14 04:18:12;;;;;;;22.60;16.15;;;;;;;27.35;nan;98894.06;5027475;28;20138;-64
2023/10/14 04:20:46;;;;;;;24.10;17.30;;;;;;;27.33;nan;98890.03;5034335;28;20130;-64
2023/10/14 04:23:27;;;;;;;37.67;17.30;;;;;;;27.73;nan;98899.44;5039688;28;20065;-64
2023/10/14 04:26:03;;;;;;;22.95;16.02;;;;;;;27.58;nan;98893.16;5043214;28;20128;-64
2023/10/14 04:28:33;;;;;;;21.85;14.48;;;;;;;27.48;nan;98906.16;5047063;28;20381;-64
2023/10/14 04:31:06;;;;;;;19.17;13.38;;;;;;;27.79;nan;98896.34;5054727;28;20047;-64
2023/10/14 04:33:45;;;;;;;21.42;12.93;;;;;;;28.00;nan;98911.19;5062336;28;20442;-64
2023/10/14 04:38:44;;;;;;;17.05;11.63;;;;;;;28.05;nan;98902.94;5062212;28;20067;-65
2023/10/14 04:41:14;;;;;;;16.58;10.10;;;;;;;28.47;nan;98920.91;5059199;28;20049;-64
2023/10/14 04:44:00;;;;;;;14.35;8.50;;;;;;;27.98;nan;98912.59;5057981;28;20048;-64
2023/10/14 04:46:32;;;;;;;13.93;7.68;;;;;;;27.66;nan;98914.25;5060518;28;20048;-64
2023/10/14 04:49:07;;;;;;;12.68;8.63;;;;;;;27.80;nan;98906.09;5060545;28;20065;-64
2023/10/14 04:51:38;;;;;;;12.05;7.20;;;;;;;27.94;nan;98912.38;5068952;28;20539;-64
2023/10/14 04:54:22;;;;;;;10.00;6.15;;;;;;;27.89;nan;98919.81;5063683;28;20472;-64
2023/10/14 04:56:57;;;;;;;12.93;5.97;;;;;;;27.78;nan;98919.22;5067392;28;20137;-63
2023/10/14 04:59:28;;;;;;;10.18;6.20;;;;;;;27.63;nan;98920.28;5068782;28;20135;-64
2023/10/14 05:01:57;;;;;;;10.82;6.75;;;;;;;27.74;nan;98917.41;5051192;28;20037;-63
2023/10/14 05:04:30;;;;;;;13.23;6.63;;;;;;;27.52;nan;98913.41;5064230;28;20063;-65
2023/10/14 05:07:05;;;;;;;;;;;;;;;28.45;nan;98906.78;5074584;28;20048;-64
2023/10/14 05:09:39;;;;;;;13.98;6.97;;;;;;;27.82;nan;98906.63;5061044;28;19964;-64
2023/10/14 05:12:09;;;;;;;13.68;6.90;;;;;;;27.95;nan;98897.66;5049518;28;20054;-63
2023/10/14 05:14:39;;;;;;;15.27;7.10;;;;;;;28.45;nan;98895.88;5065679;28;20055;-63
2023/10/14 05:19:48;;;;;;;15.27;7.05;;;;;;;28.87;nan;98881.09;5061690;28;20133;-63
2023/10/14 05:22:23;;;;;;;13.63;7.20;;;;;;;29.05;nan;98886.69;5065729;28;20783;-63
2023/10/14 05:25:03;;;;;;;14.32;6.70;;;;;;;28.64;nan;98878.56;5065133;28;20059;-64
2023/10/14 05:27:45;;;;;;;19.65;7.75;;;;;;;28.35;nan;98868.84;5057225;28;20487;-64
2023/10/14 05:30:15;;;;;;;15.60;6.77;;;;;;;28.49;nan;98866.91;5060458;28;20056;-64
2023/10/14 05:32:46;;;;;;;14.88;7.53;;;;;;;28.12;nan;98867.13;5060393;28;20055;-63
2023/10/14 05:35:15;;;;;;;8.27;6.22;;;;;;;28.87;nan;98858.47;5057432;28;20059;-64
2023/10/14 05:37:47;;;;;;;10.95;6.32;;;;;;;28.48;nan;98859.03;5059462;28;20068;-63
2023/10/14 05:40:21;;;;;;;9.00;6.50;;;;;;;28.65;nan;98861.91;5060384;28;20045;-64
2023/10/14 05:42:50;;;;;;;8.55;6.43;;;;;;;28.74;nan;98864.75;5061755;28;20040;-64
2023/10/14 05:45:21;;;;;;;8.20;5.90;;;;;;;28.71;nan;98865.38;5052025;28;20045;-64
2023/10/14 05:47:50;;;;;;;11.65;5.20;;;;;;;28.89;nan;98872.59;5062981;28;20051;-63
2023/10/14 05:50:20;;;;;;;8.20;5.65;;;;;;;29.43;nan;98863.41;5057002;28;20044;-63
2023/10/14 05:52:49;;;;;;;12.32;4.80;;;;;;;28.80;nan;98866.25;5060256;28;20072;-64
2023/10/14 05:55:21;;;;;;;8.40;5.45;;;;;;;29.30;nan;98867.78;5060613;28;20618;-64
2023/10/14 05:57:51;;;;;;;11.63;5.22;;;;;;;29.83;nan;98867.78;5039662;28;20190;-64
2023/10/14 06:00:25;;;;;;;8.20;4.88;;;;;;;29.66;nan;98862.22;5061849;28;20048;-63
2023/10/14 06:02:56;;;;;;;7.80;4.60;;;;;;;29.43;nan;98861.47;5055349;28;20041;-63
2023/10/14 06:05:32;;;;;;;5.28;4.78;;;;;;;29.53;nan;98859.59;5045697;28;20059;-66
2023/10/14 06:08:11;;;;;;;9.90;5.78;;;;;;;29.38;nan;98861.63;5057151;28;20092;-65
2023/10/14 06:10:41;;;;;;;9.52;5.75;;;;;;;29.27;nan;98864.84;5059933;28;20040;-68
2023/10/14 06:13:14;;;;;;;8.60;5.93;;;;;;;29.25;nan;98872.56;5058929;28;20048;-67
2023/10/14 06:15:44;;;;;;;11.52;6.28;;;;;;;29.26;nan;98872.22;5040739;28;20052;-65
2023/10/14 06:18:16;;;;;;;8.35;6.35;;;;;;;29.38;nan;98866.25;5060974;28;20049;-61
2023/10/14 06:20:46;;;;;;;15.20;7.03;;;;;;;29.45;nan;98875.63;5041086;28;20052;-62
2023/10/14 06:23:15;;;;;;;8.52;6.82;;;;;;;28.96;nan;98872.97;5058999;28;20117;-62
2023/10/14 06:25:45;;;;;;;11.35;7.32;;;;;;;29.31;nan;98868.59;5043354;28;20044;-61
2023/10/14 06:28:15;;;;;;;14.00;7.40;;;;;;;29.44;nan;98874.00;5061015;28;20068;-61
2023/10/14 06:30:44;;;;;;;12.35;6.55;;;;;;;29.35;nan;98869.59;5041811;28;20047;-60
2023/10/14 06:33:13;;;;;;;9.45;6.65;;;;;;;29.65;nan;98862.56;5060755;28;20062;-59
2023/10/14 06:35:42;;;;;;;10.18;6.57;;;;;;;29.81;nan;98853.66;5043528;28;20060;-60
2023/10/14 06:38:23;;;;;;;10.27;6.50;;;;;;;29.67;nan;98852.13;5054028;28;20135;-60
2023/10/14 06:40:53;;;;;;;10.80;6.13;;;;;;;29.38;nan;98855.34;5060590;28;20048;-61
2023/10/14 06:43:25;;;;;;;7.43;6.50;;;;;;;29.60;nan;98849.03;5054297;28;20049;-59
2023/10/14 06:45:56;;;;;;;9.88;6.25;;;;;;;29.55;nan;98830.88;5057158;28;20051;-62
2023/10/14 06:48:27;;;;;;;13.45;6.70;;;;;;;29.55;nan;98828.16;5059841;28;20056;-60
2023/10/14 06:50:58;;;;;;;9.38;6.53;;;;;;;29.58;nan;98823.97;5054224;28;20057;-61
2023/10/14 06:53:28;;;;;;;12.55;6.63;;;;;;;29.62;nan;98822.22;5048916;28;20045;-60
2023/10/14 06:56:00;;;;;;;8.57;6.60;;;;;;;29.35;nan;98821.28;5050238;28;20137;-61
2023/10/14 06:58:32;;;;;;;11.05;7.13;;;;;;;29.31;nan;98819.50;5057121;28;20049;-61
2023/10/14 07:01:03;;;;;;;8.73;6.43;;;;;;;29.55;nan;98808.22;5060190;28;20048;-60
2023/10/14 07:03:33;;;;;;;9.65;7.25;;;;;;;29.32;nan;98805.53;5055161;28;20388;-60
2023/10/14 07:06:04;;;;;;;8.35;6.95;;;;;;;29.32;nan;98797.34;5058635;28;20552;-61
2023/10/14 07:08:36;;;;;;;12.77;6.93;;;;;;;29.01;nan;98791.84;5058790;28;20044;-61
2023/10/14 07:11:06;;;;;;;11.80;7.32;;;;;;;29.34;nan;98786.91;5052906;28;20048;-61
2023/10/14 07:13:38;;;;;;;12.45;7.32;;;;;;;29.40;nan;98780.22;5048768;28;20098;-61
2023/10/14 07:16:08;;;;;;;11.18;7.20;;;;;;;29.44;nan;98775.75;5049149;28;20044;-61
2023/10/14 07:18:38;;;;;;;12.23;7.40;;;;;;;29.64;nan;98770.84;5053039;28;20048;-64
2023/10/14 07:21:13;;;;;;;14.52;7.93;;;;;;;29.68;nan;98769.91;5053000;28;20056;-62
2023/10/14 07:23:43;;;;;;;27.08;10.48;;;;;;;29.59;nan;98766.34;5055134;28;20803;-64
2023/10/14 07:26:14;;;;;;;13.55;9.30;;;;;;;29.56;nan;98760.72;5059304;28;20048;-61
2023/10/14 07:28:51;;;;;;;17.90;10.43;;;;;;;29.53;nan;98753.13;5053204;28;20530;-62
2023/10/14 07:31:23;;;;;;;12.45;9.65;;;;;;;29.53;nan;98748.47;5054507;28;20069;-62
2023/10/14 07:33:53;;;;;;;15.68;11.20;;;;;;;29.40;nan;98746.66;5057656;28;20536;-61
2023/10/14 07:36:22;;;;;;;13.38;11.43;;;;;;;29.55;nan;98746.25;5051574;28;20055;-61
2023/10/14 07:38:54;;;;;;;17.55;12.85;;;;;;;29.53;nan;98745.75;5057086;28;20052;-61
2023/10/14 07:41:26;;;;;;;17.00;12.90;;;;;;;29.51;nan;98731.63;5056655;28;20145;-60
2023/10/14 07:43:55;;;;;;;18.42;13.43;;;;;;;29.49;nan;98746.69;5057316;28;20192;-61
2023/10/14 07:46:25;;;;;;;18.13;13.55;;;;;;;29.40;nan;98755.66;5056075;28;20395;-61
2023/10/14 07:48:54;;;;;;;16.73;12.95;;;;;;;29.32;nan;98753.69;5063567;28;20051;-60
2023/10/14 07:51:23;;;;;;;23.80;13.27;;;;;;;29.14;nan;98762.06;5050035;28;20048;-60
2023/10/14 07:53:57;;;;;;;20.15;13.10;;;;;;;28.90;nan;98763.19;5057192;28;20067;-60
2023/10/14 07:56:27;;;;;;;24.60;16.05;;;;;;;28.61;nan;98765.53;5069225;28;20403;-61
2023/10/14 07:58:56;;;;;;;25.92;17.08;;;;;;;28.56;nan;98763.72;5063198;28;20056;-61
2023/10/14 08:01:25;;;;;;;26.80;17.60;;;;;;;28.54;nan;98751.53;5058763;28;20048;-61
2023/10/14 08:03:58;;;;;;;36.88;21.10;;;;;;;28.61;nan;98759.25;5059634;28;20059;-60
2023/10/14 08:06:27;;;;;;;34.53;22.23;;;;;;;28.65;nan;98768.44;5059178;28;20046;-61
2023/10/14 08:08:57;;;;;;;31.10;18.90;;;;;;;28.44;nan;98758.03;5045656;28;20297;-60
2023/10/14 08:11:28;;;;;;;28.15;16.05;;;;;;;28.37;nan;98757.63;5040472;28;20794;-60
2023/10/14 08:13:58;;;;;;;28.90;17.77;;;;;;;28.42;nan;98762.97;5056298;28;20978;-61
2023/10/14 08:16:27;;;;;;;22.73;15.98;;;;;;;28.28;nan;98766.84;5052165;28;20044;-60
2023/10/14 08:18:56;;;;;;;27.60;15.55;;;;;;;28.17;nan;98763.53;5060709;28;20044;-61
2023/10/14 08:21:26;;;;;;;28.88;17.90;;;;;;;28.09;nan;98766.94;5056128;28;20156;-60
2023/10/14 08:23:58;;;;;;;26.23;14.25;;;;;;;28.12;nan;98777.25;5050128;28;20044;-61
2023/10/14 08:26:27;;;;;;;;;;;;;;;27.77;nan;98776.06;4701619;28;9999999;-62
2023/10/14 08:29:00;;;;;;;27.70;12.07;;;;;;;27.47;nan;98772.00;5048494;28;20025;-62
2023/10/14 08:31:32;;;;;;;25.77;10.85;;;;;;;27.25;nan;98769.94;5056321;28;20047;-62
2023/10/14 08:34:02;;;;;;;26.08;10.63;;;;;;;27.47;nan;98769.25;5054833;28;20044;-65
2023/10/14 08:36:31;;;;;;;18.73;7.13;;;;;;;27.10;nan;98770.19;5064247;28;20151;-62
2023/10/14 08:39:00;;;;;;;15.82;6.30;;;;;;;26.94;nan;98757.16;5052935;28;20052;-63
2023/10/14 08:41:36;;;;;;;23.45;8.68;;;;;;;27.22;nan;98759.63;5056131;28;20144;-60
2023/10/14 08:44:11;;;;;;;18.60;6.72;;;;;;;27.43;nan;98762.81;5050965;28;20044;-62
2023/10/14 08:46:43;;;;;;;15.55;5.30;;;;;;;27.36;nan;98754.22;5058720;28;20052;-63
2023/10/14 08:49:14;;;;;;;18.17;5.90;;;;;;;27.40;nan;98755.22;5052157;28;20048;-65
2023/10/14 08:51:45;;;;;;;15.98;6.63;;;;;;;27.24;nan;98751.19;5040285;28;20128;-65
2023/10/14 08:54:24;;;;;;;14.27;5.85;;;;;;;27.37;nan;98744.97;5056356;28;20475;-64
2023/10/14 08:56:54;;;;;;;28.70;8.05;;;;;;;27.44;nan;98748.06;5057348;28;20044;-65
2023/10/14 08:59:24;;;;;;;13.02;5.85;;;;;;;27.49;nan;98748.03;5059578;28;20156;-63
2023/10/14 09:01:56;;;;;;;13.45;6.25;;;;;;;27.42;nan;98741.34;5054889;28;20140;-63
2023/10/14 09:04:30;;;;;;;15.82;6.32;;;;;;;27.41;nan;98732.38;5058251;28;20087;-61
2023/10/14 09:07:05;;;;;;;18.50;7.73;;;;;;;27.35;nan;98733.56;4704482;28;9999870;-61
2023/10/14 09:09:35;;;;;;;13.73;7.68;;;;;;;27.34;nan;98742.03;5060146;28;20288;-61
2023/10/14 09:12:14;;;;;;;22.08;9.52;;;;;;;27.36;nan;98727.03;5058869;28;20041;-62
2023/10/14 09:14:44;;;;;;;16.95;10.40;;;;;;;27.34;nan;98731.97;5062799;28;20040;-63
2023/10/14 09:17:15;;;;;;;16.17;12.27;;;;;;;27.30;nan;98733.69;5060401;28;20048;-62
2023/10/14 09:19:50;;;;;;;23.63;14.07;;;;;;;27.30;nan;98736.41;5048931;28;20048;-61
2023/10/14 09:22:33;;;;;;;23.60;14.43;;;;;;;27.30;nan;98733.69;5045434;28;20056;-63
2023/10/14 09:25:05;;;;;;;20.95;15.30;;;;;;;27.25;nan;98733.78;5057287;28;20538;-62
2023/10/14 09:27:37;;;;;;;24.38;16.80;;;;;;;27.10;nan;98713.09;5058619;28;20067;-63
2023/10/14 09:30:09;;;;;;;;;;;;;;;27.12;nan;98716.34;5054635;28;20742;-61
2023/10/14 09:32:40;;;;;;;23.10;14.90;;;;;;;27.20;nan;98707.47;5051908;28;19924;-63
2023/10/14 09:35:11;;;;;;;19.27;14.00;;;;;;;27.21;nan;98708.28;5042666;28;20044;-63
2023/10/14 09:37:42;;;;;;;26.80;15.18;;;;;;;27.30;nan;98695.59;5043084;28;20052;-63
2023/10/14 09:40:14;;;;;;;19.65;13.75;;;;;;;27.38;nan;98699.53;5058822;28;20063;-63
2023/10/14 09:42:45;;;;;;;24.20;12.63;;;;;;;27.33;nan;98700.44;4716233;28;10000497;-64
2023/10/14 09:45:19;;;;;;;19.13;11.20;;;;;;;27.39;nan;98693.00;5060604;28;20136;-66
2023/10/14 09:47:52;;;;;;;18.90;10.38;;;;;;;27.29;nan;98693.19;5068726;28;20051;-64
2023/10/14 09:50:23;;;;;;;15.60;9.75;;;;;;;27.34;nan;98684.91;5059385;28;20499;-63
2023/10/14 09:52:55;;;;;;;13.40;8.20;;;;;;;27.16;nan;98689.34;5034407;28;20063;-63
2023/10/14 09:55:25;;;;;;;15.32;9.15;;;;;;;26.96;nan;98682.34;5049911;28;20052;-62
2023/10/14 09:57:59;;;;;;;13.43;8.18;;;;;;;26.88;nan;98690.41;5059521;28;20808;-63
2023/10/14 10:00:31;;;;;;;23.45;9.10;;;;;;;26.97;nan;98688.59;5063132;28;20113;-63
2023/10/14 10:03:06;;;;;;;11.45;8.43;;;;;;;26.94;nan;98678.34;5055544;28;20419;-63
2023/10/14 10:05:45;;;;;;;13.50;8.45;;;;;;;26.90;nan;98669.16;5061271;28;20059;-64
2023/10/14 10:08:33;;;;;;;17.13;9.25;;;;;;;26.83;nan;98674.94;5051084;28;20073;-63
2023/10/14 10:11:07;;;;;;;19.30;9.75;;;;;;;26.89;nan;98676.50;5056463;28;20664;-62
2023/10/14 10:13:41;;;;;;;14.90;9.43;;;;;;;26.85;nan;98680.09;5055333;28;20045;-62
2023/10/14 10:16:13;;;;;;;19.20;11.15;;;;;;;26.53;nan;98686.34;5043099;28;20052;-62
2023/10/14 10:19:00;;;;;;;13.82;9.77;;;;;;;26.42;nan;98685.72;5055776;28;20110;-63
2023/10/14 10:21:31;;;;;;;13.13;9.30;;;;;;;26.40;nan;98681.66;5058767;28;20048;-62
2023/10/14 10:24:18;;;;;;;12.60;9.50;;;;;;;26.42;nan;98672.13;5052796;28;20171;-64
2023/10/14 10:27:21;;;;;;;12.02;9.48;;;;;;;26.49;nan;98677.97;5049702;28;20463;-63
2023/10/14 10:29:57;;;;;;;13.50;9.50;;;;;;;26.68;nan;98684.19;5006527;28;20053;-63
2023/10/14 10:32:35;;;;;;;17.35;9.88;;;;;;;26.84;nan;98682.00;5046969;28;20048;-62
2023/10/14 10:35:06;;;;;;;14.50;10.15;;;;;;;26.90;nan;98675.41;5047002;28;20052;-62
2023/10/14 10:37:37;;;;;;;13.75;10.13;;;;;;;26.88;nan;98683.06;5044762;28;20053;-64
2023/10/14 10:40:11;;;;;;;15.82;11.15;;;;;;;26.81;nan;98671.75;5029140;28;20074;-66
2023/10/14 10:42:53;;;;;;;14.48;10.10;;;;;;;26.96;nan;98660.59;5031377;28;20098;-65
2023/10/14 10:45:29;;;;;;;13.77;9.75;;;;;;;27.01;nan;98654.28;5048520;28;20048;-64
2023/10/14 10:48:03;;;;;;;12.75;8.95;;;;;;;27.07;nan;98664.75;4999013;28;20170;-68
2023/10/14 10:50:36;;;;;;;13.00;8.50;;;;;;;27.08;nan;98658.22;5048918;28;20068;-70
2023/10/14 10:53:17;;;;;;;20.63;9.43;;;;;;;27.12;nan;98653.78;5040381;28;20400;-65
2023/10/14 10:55:50;;;;;;;15.00;9.23;;;;;;;27.13;nan;98649.94;5040240;28;20116;-66
2023/10/14 10:58:25;;;;;;;15.82;9.05;;;;;;;27.10;nan;98647.84;5038224;28;20047;-66
2023/10/14 11:00:56;;;;;;;13.20;10.33;;;;;;;26.97;nan;98648.63;5050717;28;20125;-67
2023/10/14 11:03:27;;;;;;;16.17;11.05;;;;;;;26.95;nan;98652.78;5044175;28;20045;-67
2023/10/14 11:05:58;;;;;;;19.40;11.18;;;;;;;26.79;nan;98642.13;5055752;28;20045;-65
2023/10/14 11:08:28;;;;;;;16.70;10.52;;;;;;;26.79;nan;98647.56;5062728;28;20068;-68
2023/10/14 11:11:01;;;;;;;13.35;8.95;;;;;;;26.71;nan;98650.97;5051299;28;20103;-66
2023/10/14 11:13:31;;;;;;;17.52;9.10;;;;;;;26.82;nan;98643.44;5047166;28;20114;-65
2023/10/14 11:16:12;;;;;;;17.65;8.90;;;;;;;26.79;nan;98636.69;5051020;28;20045;-65
2023/10/14 11:18:48;;;;;;;14.40;9.77;;;;;;;26.78;nan;98642.41;5046551;28;20045;-67
2023/10/14 11:21:18;;;;;;;18.20;11.30;;;;;;;26.86;nan;98646.41;5053521;28;20048;-67
2023/10/14 11:23:52;;;;;;;18.60;12.00;;;;;;;26.91;nan;98647.09;5048457;28;20045;-65
2023/10/14 11:26:23;;;;;;;21.52;12.13;;;;;;;26.93;nan;98638.66;5044238;28;20484;-66
2023/10/14 11:28:53;;;;;;;16.55;11.93;;;;;;;26.94;nan;98643.00;5052768;28;20041;-65
2023/10/14 11:31:24;;;;;;;17.13;11.65;;;;;;;26.97;nan;98636.94;5033830;28;20478;-66
2023/10/14 11:33:55;;;;;;;19.58;11.52;;;;;;;26.92;nan;98632.41;5037601;28;20548;-68
2023/10/14 11:36:26;;;;;;;18.98;12.40;;;;;;;26.91;nan;98644.38;5049866;28;20045;-66
2023/10/14 11:38:58;;;;;;;21.70;12.68;;;;;;;26.87;nan;98651.53;5056605;28;20066;-65
2023/10/14 11:41:28;;;;;;;;;;;;;;;26.89;nan;98640.38;5055685;28;20045;-65
2023/10/14 11:43:57;;;;;;;26.17;19.27;;;;;;;26.79;nan;98633.97;5036572;28;19925;-64
2023/10/14 11:46:28;;;;;;;32.03;20.83;;;;;;;26.75;nan;98627.53;5051942;28;20144;-64
2023/10/14 11:48:57;;;;;;;28.15;20.83;;;;;;;26.85;nan;98636.59;5040872;28;20098;-65
2023/10/14 11:51:30;;;;;;;30.20;22.00;;;;;;;26.80;nan;98638.31;5060108;28;20056;-64
2023/10/14 11:54:00;;;;;;;31.27;22.02;;;;;;;26.78;nan;98645.94;5054551;28;20094;-64
2023/10/14 11:56:29;;;;;;;30.95;22.90;;;;;;;26.66;nan;98631.22;5054334;28;20274;-64
2023/10/14 11:59:00;;;;;;;31.65;22.35;;;;;;;26.56;nan;98629.50;5045722;28;20053;-64
2023/10/14 12:01:33;;;;;;;29.13;22.30;;;;;;;26.55;nan;98627.09;5033697;28;20040;-65
2023/10/14 12:04:02;;;;;;;34.08;22.13;;;;;;;26.57;nan;98622.16;5046845;28;20049;-65
2023/10/14 12:06:34;;;;;;;29.65;22.63;;;;;;;26.56;nan;98636.84;5040690;28;20056;-65
2023/10/14 12:09:07;;;;;;;32.33;23.25;;;;;;;26.51;nan;98635.00;5048555;28;20186;-65
2023/10/14 12:11:42;;;;;;;33.40;21.90;;;;;;;26.42;nan;98628.69;5046560;28;20052;-65
2023/10/14 12:14:14;;;;;;;34.90;24.00;;;;;;;26.31;nan;98621.78;5052473;28;20056;-66
2023/10/14 12:16:44;;;;;;;33.95;21.65;;;;;;;26.32;nan;98621.50;5022542;28;20056;-65
2023/10/14 12:19:18;;;;;;;32.72;20.80;;;;;;;26.27;nan;98635.16;5045580;28;20068;-66
2023/10/14 12:21:48;;;;;;;27.67;21.48;;;;;;;26.29;nan;98627.50;5049036;28;20102;-66
2023/10/14 12:24:17;;;;;;;28.05;19.63;;;;;;;26.31;nan;98628.03;5056981;28;20052;-64
2023/10/14 12:26:49;;;;;;;35.08;21.02;;;;;;;26.29;nan;98626.69;5042332;28;20156;-65